Time;durP1;ratioP1;P1;durP2;ratioP2;P2;SDS_P1;SDS_P2;PMS_P1;PMS_P2;Temp;Humidity;BMP_temperature;BMP_pressure;BME280_temperature;BME280_humidity;BME280_pressure;Samples;Min_cycle;Max_cycle;Signal;HPM_P1;HPM_P2
2021/07/30 00:01:36;;;;;;;;;6.50;4.75;;;;;-143.39;100.00;63593.47;4888452;29;45161;-83
2021/07/30 00:04:01;;;;;;;;;6.00;5.50;;;;;-143.39;100.00;63593.47;4886903;29;45261;-82
2021/07/30 00:06:26;;;;;;;;;5.00;4.25;;;;;-143.39;100.00;63593.47;4886597;29;45214;-82
2021/07/30 00:08:52;;;;;;;;;5.75;5.75;;;;;-143.39;100.00;63593.47;4886705;29;45281;-83
2021/07/30 00:11:17;;;;;;;;;11.75;8.25;;;;;-143.39;100.00;63593.47;4886035;29;45297;-83
2021/07/30 00:13:43;;;;;;;;;6.00;5.00;;;;;-143.39;100.00;63593.47;4896047;29;45218;-83
2021/07/30 00:16:09;;;;;;;;;5.75;5.00;;;;;-143.39;100.00;63593.47;4869351;29;45525;-82
2021/07/30 00:18:34;;;;;;;;;6.50;6.50;;;;;-143.39;100.00;63593.47;4886635;29;46190;-82
2021/07/30 00:20:59;;;;;;;;;7.75;5.25;;;;;-143.39;100.00;63593.47;4886775;29;45488;-82
2021/07/30 00:23:25;;;;;;;;;8.00;6.00;;;;;-143.39;100.00;63593.47;4869981;29;45416;-82
2021/07/30 00:25:50;;;;;;;;;5.50;5.00;;;;;-143.39;100.00;63593.47;4886119;29;45390;-82
2021/07/30 00:28:15;;;;;;;;;5.00;5.00;;;;;-143.39;100.00;63593.47;4885774;29;45434;-82
2021/07/30 00:30:41;;;;;;;;;4.25;4.25;;;;;-143.39;100.00;63593.47;4886054;29;45413;-82
2021/07/30 00:33:06;;;;;;;;;6.00;5.50;;;;;-143.39;100.00;63593.47;4869412;29;45439;-83
2021/07/30 00:35:31;;;;;;;;;5.50;4.25;;;;;-143.39;100.00;63593.47;4885968;29;45515;-82
2021/07/30 00:37:57;;;;;;;;;4.00;4.00;;;;;-143.39;100.00;63593.47;4885975;29;45425;-83
2021/07/30 00:40:22;;;;;;;;;5.00;5.00;;;;;-143.39;100.00;63593.47;4885988;29;45426;-82
2021/07/30 00:42:49;;;;;;;;;7.25;5.00;;;;;-143.39;100.00;63593.47;4886753;29;45509;-82
2021/07/30 00:45:14;;;;;;;;;7.75;7.00;;;;;-143.39;100.00;63593.47;4885807;29;45236;-82
2021/07/30 00:47:40;;;;;;;;;6.50;5.00;;;;;-143.39;100.00;63593.47;4885649;29;45953;-82
2021/07/30 00:50:06;;;;;;;;;6.00;4.75;;;;;-143.39;100.00;63593.47;4868731;29;45854;-82
2021/07/30 00:52:31;;;;;;;;;6.00;5.25;;;;;-143.39;100.00;63593.47;4885827;29;45213;-81
2021/07/30 00:54:56;;;;;;;;;5.00;5.00;;;;;-143.39;100.00;63593.47;4885705;29;45226;-81
2021/07/30 00:57:23;;;;;;;;;5.25;5.25;;;;;-143.39;100.00;63593.47;4893857;29;45558;-82
2021/07/30 00:59:50;;;;;;;;;8.00;6.75;;;;;-143.39;100.00;63593.47;4885638;29;45757;-82
2021/07/30 01:02:16;;;;;;;;;6.50;5.00;;;;;-143.39;100.00;63593.47;4885822;29;45294;-81
2021/07/30 01:04:42;;;;;;;;;4.50;4.50;;;;;-143.39;100.00;63593.47;4886276;29;45411;-82
2021/07/30 01:07:07;;;;;;;;;5.50;4.25;;;;;-143.39;100.00;63593.47;4886233;29;45467;-83
2021/07/30 01:09:32;;;;;;;;;4.75;4.75;;;;;-143.39;100.00;63593.47;4888656;29;45313;-83
2021/07/30 01:12:01;;;;;;;;;7.00;7.00;;;;;-143.39;100.00;63593.47;4887634;29;45290;-83
2021/07/30 01:14:27;;;;;;;;;8.00;4.00;;;;;-143.39;100.00;63593.47;4888395;29;45341;-82
2021/07/30 01:16:52;;;;;;;;;6.75;5.75;;;;;-143.39;100.00;63593.47;4885438;29;45299;-83
2021/07/30 01:19:23;;;;;;;;;7.25;6.00;;;;;-143.39;100.00;63593.47;4885511;29;45407;-83
2021/07/30 01:21:50;;;;;;;;;8.00;5.25;;;;;-143.39;100.00;63593.47;4885578;29;45302;-83
2021/07/30 01:24:17;;;;;;;;;6.00;4.50;;;;;-143.39;100.00;63593.47;4885441;29;45482;-83
2021/07/30 01:26:42;;;;;;;;;5.25;5.00;;;;;-143.39;100.00;63593.47;4885502;29;46729;-83
2021/07/30 01:29:07;;;;;;;;;4.50;4.50;;;;;-143.39;100.00;63593.47;4885936;29;45252;-83
2021/07/30 01:31:33;;;;;;;;;6.00;5.00;;;;;-143.39;100.00;63593.47;4885864;29;45140;-83
2021/07/30 01:33:58;;;;;;;;;6.50;4.00;;;;;-143.39;100.00;63593.47;4884826;29;45458;-83
2021/07/30 01:36:24;;;;;;;;;5.50;3.25;;;;;-143.39;100.00;63593.47;4885085;29;45565;-82
2021/07/30 01:38:49;;;;;;;;;7.25;4.00;;;;;-143.39;100.00;63593.47;4884836;29;45300;-82
2021/07/30 01:41:15;;;;;;;;;6.00;5.00;;;;;-143.39;100.00;63593.47;4885626;29;45431;-82
2021/07/30 01:43:43;;;;;;;;;7.00;6.00;;;;;-143.39;100.00;63593.47;4867913;29;45515;-82
2021/07/30 01:46:09;;;;;;;;;5.00;4.50;;;;;-143.39;100.00;63593.47;4885148;29;46037;-82
2021/07/30 01:48:34;;;;;;;;;9.25;4.75;;;;;-143.39;100.00;63593.47;4885122;29;45189;-82
2021/07/30 01:51:00;;;;;;;;;5.00;5.00;;;;;-143.39;100.00;63593.47;4885850;29;45222;-82
2021/07/30 01:53:26;;;;;;;;;7.00;5.00;;;;;-143.39;100.00;63593.47;4885039;29;45161;-82
2021/07/30 01:55:51;;;;;;;;;4.50;4.50;;;;;-143.39;100.00;63593.47;4889321;29;45990;-82
2021/07/30 01:58:16;;;;;;;;;7.25;5.00;;;;;-143.39;100.00;63593.47;4888470;29;45193;-82
2021/07/30 02:00:41;;;;;;;;;6.00;6.00;;;;;-143.39;100.00;63593.47;4884942;29;45221;-82
2021/07/30 02:03:07;;;;;;;;;5.00;5.00;;;;;-143.39;100.00;63593.47;4884364;29;45225;-82
2021/07/30 02:05:32;;;;;;;;;6.75;5.50;;;;;-143.39;100.00;63593.47;4884621;29;45306;-82
2021/07/30 02:07:57;;;;;;;;;8.25;6.50;;;;;-143.39;100.00;63593.47;4884461;29;45325;-82
2021/07/30 02:10:23;;;;;;;;;7.50;5.50;;;;;-143.39;100.00;63593.47;4894434;29;45226;-82
2021/07/30 02:15:32;;;;;;;;;6.25;6.00;;;;;-143.39;100.00;63593.47;4903977;29;45360;-83
2021/07/30 02:17:57;;;;;;;;;8.50;7.00;;;;;-143.39;100.00;63593.47;4886408;29;45262;-82
2021/07/30 02:20:23;;;;;;;;;4.75;4.75;;;;;-143.39;100.00;63593.47;4903692;29;45182;-81
2021/07/30 02:22:48;;;;;;;;;8.25;5.25;;;;;-143.39;100.00;63593.47;4903493;29;45170;-81
2021/07/30 02:25:13;;;;;;;;;6.00;5.00;;;;;-143.39;100.00;63593.47;4877563;29;48028;-82
2021/07/30 02:27:39;;;;;;;;;8.00;6.25;;;;;-143.39;100.00;63593.47;4887817;29;45347;-82
2021/07/30 02:30:05;;;;;;;;;8.00;5.75;;;;;-143.39;100.00;63593.47;4899168;29;45745;-82
2021/07/30 02:32:30;;;;;;;;;7.00;7.00;;;;;-143.39;100.00;63593.47;4890174;29;45404;-82
2021/07/30 02:34:56;;;;;;;;;5.75;5.25;;;;;-143.39;100.00;63593.47;4888139;29;46571;-82
2021/07/30 02:37:21;;;;;;;;;11.00;6.75;;;;;-143.39;100.00;63593.47;4888417;29;45520;-82
2021/07/30 02:39:47;;;;;;;;;7.25;6.00;;;;;-143.39;100.00;63593.47;4887602;29;45419;-82
2021/07/30 02:42:12;;;;;;;;;8.00;6.00;;;;;-143.39;100.00;63593.47;4870475;29;45508;-82
2021/07/30 02:44:37;;;;;;;;;6.00;5.75;;;;;-143.39;100.00;63593.47;4870166;29;47251;-82
2021/07/30 02:47:03;;;;;;;;;6.25;6.00;;;;;-143.39;100.00;63593.47;4885922;29;46040;-82
2021/07/30 02:49:28;;;;;;;;;6.75;4.75;;;;;-143.39;100.00;63593.47;4870604;29;45437;-82
2021/07/30 02:51:54;;;;;;;;;8.25;6.00;;;;;-143.39;100.00;63593.47;4870445;29;45328;-82
2021/07/30 02:54:19;;;;;;;;;6.25;6.00;;;;;-143.39;100.00;63593.47;4870406;29;48287;-82
2021/07/30 02:56:44;;;;;;;;;7.50;5.75;;;;;-143.39;100.00;63593.47;4895433;29;45166;-82
2021/07/30 02:59:09;;;;;;;;;10.75;6.75;;;;;-143.39;100.00;63593.47;4888319;29;45434;-82
2021/07/30 03:01:35;;;;;;;;;6.00;5.75;;;;;-143.39;100.00;63593.47;4888121;29;45375;-82
2021/07/30 03:04:00;;;;;;;;;8.00;6.75;;;;;-143.39;100.00;63593.47;4887014;29;45312;-82
2021/07/30 03:06:25;;;;;;;;;5.25;5.25;;;;;-143.39;100.00;63593.47;4886869;29;52452;-82
2021/07/30 03:08:51;;;;;;;;;6.75;6.50;;;;;-143.39;100.00;63593.47;4886109;29;45291;-82
2021/07/30 03:11:16;;;;;;;;;8.75;7.00;;;;;-143.39;100.00;63593.47;4886782;29;45468;-82
2021/07/30 03:13:41;;;;;;;;;8.25;7.00;;;;;-143.39;100.00;63593.47;4905595;29;46189;-82
2021/07/30 03:16:07;;;;;;;;;7.25;5.75;;;;;-143.39;100.00;63593.47;4888842;29;45210;-82
2021/07/30 03:18:32;;;;;;;;;7.00;6.75;;;;;-143.39;100.00;63593.47;4889134;29;45271;-81
2021/07/30 03:20:58;;;;;;;;;6.75;6.75;;;;;-143.39;100.00;63593.47;4907448;29;45167;-83
2021/07/30 03:23:23;;;;;;;;;6.00;5.00;;;;;-143.39;100.00;63593.47;4907167;29;45686;-82
2021/07/30 03:25:49;;;;;;;;;6.25;6.00;;;;;-143.39;100.00;63593.47;4905816;29;45341;-82
2021/07/30 03:28:14;;;;;;;;;5.00;5.00;;;;;-143.39;100.00;63593.47;4905707;29;45321;-82
2021/07/30 03:30:39;;;;;;;;;6.25;5.50;;;;;-143.39;100.00;63593.47;4888573;29;45300;-82
2021/07/30 03:33:05;;;;;;;;;6.75;5.50;;;;;-143.39;100.00;63593.47;4905589;29;45321;-82
2021/07/30 03:35:30;;;;;;;;;7.50;6.50;;;;;-143.39;100.00;63593.47;4905459;29;45448;-82
2021/07/30 03:37:56;;;;;;;;;7.00;5.25;;;;;-143.39;100.00;63593.47;4905074;29;45440;-82
2021/07/30 03:40:21;;;;;;;;;7.00;6.00;;;;;-143.39;100.00;63593.47;4905433;29;45376;-82
2021/07/30 03:42:47;;;;;;;;;6.50;6.50;;;;;-143.39;100.00;63593.47;4888754;29;47767;-83
2021/07/30 03:45:12;;;;;;;;;7.75;7.75;;;;;-143.39;100.00;63593.47;4906424;29;45312;-81
2021/07/30 03:47:37;;;;;;;;;8.50;7.00;;;;;-143.39;100.00;63593.47;4905770;29;45426;-81
2021/07/30 03:50:03;;;;;;;;;8.00;6.75;;;;;-143.39;100.00;63593.47;4905225;29;45400;-81
2021/07/30 03:52:28;;;;;;;;;9.00;6.25;;;;;-143.39;100.00;63593.47;4886766;29;48445;-81
2021/07/30 03:54:54;;;;;;;;;9.50;6.00;;;;;-143.39;100.00;63593.47;4905063;29;48849;-81
2021/07/30 03:57:19;;;;;;;;;6.00;6.00;;;;;-143.39;100.00;63593.47;4896986;29;45433;-82
2021/07/30 03:59:44;;;;;;;;;7.00;6.25;;;;;-143.39;100.00;63593.47;4884953;29;45307;-82
2021/07/30 04:02:10;;;;;;;;;8.00;8.00;;;;;-143.39;100.00;63593.47;4886314;29;46209;-82
2021/07/30 04:04:35;;;;;;;;;7.00;6.00;;;;;-143.39;100.00;63593.47;4886817;29;45469;-81
2021/07/30 04:07:01;;;;;;;;;6.25;6.25;;;;;-143.39;100.00;63593.47;4887675;29;45292;-81
2021/07/30 04:09:26;;;;;;;;;6.00;6.00;;;;;-143.39;100.00;63593.47;4888173;29;45474;-81
2021/07/30 04:11:52;;;;;;;;;7.00;6.25;;;;;-143.39;100.00;63593.47;4905459;29;45319;-82
2021/07/30 04:14:17;;;;;;;;;11.00;7.00;;;;;-143.39;100.00;63593.47;4891361;29;45290;-82
2021/07/30 04:16:42;;;;;;;;;6.75;6.25;;;;;-143.39;100.00;63593.47;4886932;29;45238;-82
2021/07/30 04:19:08;;;;;;;;;6.25;5.75;;;;;-143.39;100.00;63593.47;4886176;29;45394;-82
2021/07/30 04:21:34;;;;;;;;;10.00;7.50;;;;;-143.39;100.00;63593.47;4869487;29;47290;-83
2021/07/30 04:24:02;;;;;;;;;6.00;5.00;;;;;-143.39;100.00;63593.47;4886247;29;45460;-84
2021/07/30 04:26:28;;;;;;;;;7.25;6.00;;;;;-143.39;100.00;63593.47;4886649;29;45276;-83
2021/07/30 04:28:54;;;;;;;;;8.25;6.75;;;;;-143.39;100.00;63593.47;4885321;29;45371;-83
2021/07/30 04:31:19;;;;;;;;;7.00;7.00;;;;;-143.39;100.00;63593.47;4885667;29;47579;-83
2021/07/30 04:33:45;;;;;;;;;7.00;6.00;;;;;-143.39;100.00;63593.47;4884437;29;45473;-83
2021/07/30 04:36:17;;;;;;;;;7.00;7.00;;;;;-143.39;100.00;63593.47;4886034;29;45217;-83
2021/07/30 04:38:43;;;;;;;;;6.00;4.00;;;;;-143.39;100.00;63593.47;4887255;29;45410;-84
2021/07/30 04:41:09;;;;;;;;;5.00;5.00;;;;;-143.39;100.00;63593.47;4879254;29;48415;-84
2021/07/30 04:43:34;;;;;;;;;6.75;5.25;;;;;-143.39;100.00;63593.47;4885512;29;45288;-83
2021/07/30 04:46:00;;;;;;;;;6.25;5.50;;;;;-143.39;100.00;63593.47;4869132;29;45380;-84
2021/07/30 04:48:25;;;;;;;;;4.50;4.50;;;;;-143.39;100.00;63593.47;4884588;29;45344;-83
2021/07/30 04:50:51;;;;;;;;;8.25;5.00;;;;;-143.39;100.00;63593.47;4886548;29;46277;-83
2021/07/30 04:53:16;;;;;;;;;4.25;4.25;;;;;-143.39;100.00;63593.47;4869866;29;46126;-83
2021/07/30 04:55:41;;;;;;;;;5.00;5.00;;;;;-143.39;100.00;63593.47;4889191;29;45241;-83
2021/07/30 04:58:07;;;;;;;;;6.25;4.75;;;;;-143.39;100.00;63593.47;4873018;29;45900;-83
2021/07/30 05:00:32;;;;;;;;;4.50;4.50;;;;;-143.39;100.00;63593.47;4885504;29;45249;-83
2021/07/30 05:02:57;;;;;;;;;5.50;4.00;;;;;-143.39;100.00;63593.47;4885439;29;45421;-84
2021/07/30 05:05:23;;;;;;;;;10.00;3.75;;;;;-143.39;100.00;63593.47;4900086;29;45290;-83
2021/07/30 05:07:48;;;;;;;;;9.25;5.00;;;;;-143.39;100.00;63593.47;4885293;29;45156;-83
2021/07/30 05:10:14;;;;;;;;;4.50;4.50;;;;;-143.39;100.00;63593.47;4893717;29;45441;-84
2021/07/30 05:12:39;;;;;;;;;4.25;4.25;;;;;-143.39;100.00;63593.47;4903399;29;45485;-83
2021/07/30 05:15:05;;;;;;;;;4.25;3.75;;;;;-143.39;100.00;63593.47;4886064;29;45396;-84
2021/07/30 05:17:31;;;;;;;;;7.00;5.75;;;;;-143.39;100.00;63593.47;4869570;29;45571;-83
2021/07/30 05:19:56;;;;;;;;;5.00;5.00;;;;;-143.39;100.00;63593.47;4885423;29;45399;-83
2021/07/30 05:22:22;;;;;;;;;4.00;4.00;;;;;-143.39;100.00;63593.47;4884989;29;45388;-83
2021/07/30 05:24:47;;;;;;;;;4.00;4.00;;;;;-143.39;100.00;63593.47;4885261;29;45317;-84
2021/07/30 05:27:12;;;;;;;;;7.50;5.75;;;;;-143.39;100.00;63593.47;4884875;29;45389;-83
2021/07/30 05:29:38;;;;;;;;;4.25;3.25;;;;;-143.39;100.00;63593.47;4883742;29;47073;-83
2021/07/30 05:32:04;;;;;;;;;7.25;6.00;;;;;-143.39;100.00;63593.47;4885132;29;45383;-83
2021/07/30 05:34:30;;;;;;;;;7.00;4.00;;;;;-143.39;100.00;63593.47;4885203;29;45292;-83
2021/07/30 05:36:55;;;;;;;;;5.00;5.00;;;;;-143.39;100.00;63593.47;4886037;29;45262;-83
2021/07/30 05:39:21;;;;;;;;;6.75;5.25;;;;;-143.39;100.00;63593.47;4886075;29;45356;-83
2021/07/30 05:41:46;;;;;;;;;3.50;1.75;;;;;-143.39;100.00;63593.47;4884885;29;45138;-83
2021/07/30 05:44:12;;;;;;;;;4.00;4.00;;;;;-143.39;100.00;63593.47;4883599;29;45361;-83
2021/07/30 05:46:38;;;;;;;;;7.00;6.00;;;;;-143.39;100.00;63593.47;4884909;29;45656;-83
2021/07/30 05:49:03;;;;;;;;;4.00;4.00;;;;;-143.39;100.00;63593.47;4891070;29;45272;-83
2021/07/30 05:51:29;;;;;;;;;5.00;4.00;;;;;-143.39;100.00;63593.47;4891001;29;45443;-83
2021/07/30 05:53:54;;;;;;;;;6.25;5.00;;;;;-143.39;100.00;63593.47;4868019;29;45412;-83
2021/07/30 05:56:20;;;;;;;;;4.75;4.75;;;;;-143.39;100.00;63593.47;4893197;29;45409;-83
2021/07/30 05:58:45;;;;;;;;;4.00;4.00;;;;;-143.39;100.00;63593.47;4867827;29;48589;-83
2021/07/30 06:01:13;;;;;;;;;4.00;4.00;;;;;-143.39;100.00;63593.47;4900136;29;46040;-84
2021/07/30 06:03:39;;;;;;;;;6.50;4.25;;;;;-143.39;100.00;63593.47;4904444;29;45406;-83
2021/07/30 06:06:04;;;;;;;;;5.50;4.75;;;;;-143.39;100.00;63593.47;4903985;29;45165;-83
2021/07/30 06:08:30;;;;;;;;;4.50;3.50;;;;;-143.39;100.00;63593.47;4901792;29;46477;-83
2021/07/30 06:10:55;;;;;;;;;5.75;5.75;;;;;-143.39;100.00;63593.47;4903756;29;45225;-83
2021/07/30 06:13:20;;;;;;;;;6.75;5.00;;;;;-143.39;100.00;63593.47;4883170;29;45245;-83
2021/07/30 06:15:46;;;;;;;;;5.25;4.00;;;;;-143.39;100.00;63593.47;4885076;29;45222;-83
2021/07/30 06:18:11;;;;;;;;;9.00;5.00;;;;;-143.39;100.00;63593.47;4868827;29;47642;-83
2021/07/30 06:20:36;;;;;;;;;5.75;5.00;;;;;-143.39;100.00;63593.47;4881851;29;45666;-83
2021/07/30 06:23:02;;;;;;;;;5.50;5.00;;;;;-143.39;100.00;63593.47;4850139;29;45325;-83
2021/07/30 06:25:27;;;;;;;;;6.00;5.75;;;;;-143.39;100.00;63593.47;4865116;29;45532;-83
2021/07/30 06:27:53;;;;;;;;;4.75;4.50;;;;;-143.39;100.00;63593.47;4865975;29;45323;-83
2021/07/30 06:30:18;;;;;;;;;5.00;4.75;;;;;-143.39;100.00;63593.47;4866083;29;45290;-83
2021/07/30 06:32:43;;;;;;;;;4.50;4.50;;;;;-143.39;100.00;63593.47;4862577;29;45465;-83
2021/07/30 06:35:10;;;;;;;;;6.00;5.00;;;;;-143.39;100.00;63593.47;4865906;29;45309;-83
2021/07/30 06:37:36;;;;;;;;;8.25;6.00;;;;;-143.39;100.00;63593.47;4865375;29;45371;-83
2021/07/30 06:40:04;;;;;;;;;5.00;5.00;;;;;-143.39;100.00;63593.47;4866046;29;45499;-83
2021/07/30 06:42:33;;;;;;;;;5.00;5.00;;;;;-143.39;100.00;63593.47;4865443;29;45287;-83
2021/07/30 06:44:59;;;;;;;;;5.75;5.75;;;;;-143.39;100.00;63593.47;4864562;29;45509;-83
2021/07/30 06:47:25;;;;;;;;;6.50;5.50;;;;;-143.39;100.00;63593.47;4866662;29;46463;-83
2021/07/30 06:49:50;;;;;;;;;8.00;5.25;;;;;-143.39;100.00;63593.47;4874112;29;45424;-83
2021/07/30 06:52:16;;;;;;;;;4.50;3.50;;;;;-143.39;100.00;63593.47;4865657;29;45425;-83
2021/07/30 06:54:43;;;;;;;;;4.25;4.25;;;;;-143.39;100.00;63593.47;4864190;29;45516;-83
2021/07/30 06:57:08;;;;;;;;;5.00;4.75;;;;;-143.39;100.00;63593.47;4887845;29;47343;-81
2021/07/30 06:59:34;;;;;;;;;4.50;3.25;;;;;-143.39;100.00;63593.47;4865289;29;45274;-83
2021/07/30 07:02:03;;;;;;;;;5.75;4.75;;;;;-143.39;100.00;63593.47;4865681;29;45368;-83
2021/07/30 07:04:29;;;;;;;;;6.50;5.50;;;;;-143.39;100.00;63593.47;4865388;29;45263;-83
2021/07/30 07:06:54;;;;;;;;;5.00;3.25;;;;;-143.39;100.00;63593.47;4866869;29;45440;-83
2021/07/30 07:09:20;;;;;;;;;4.25;4.25;;;;;-143.39;100.00;63593.47;4868300;29;45390;-82
2021/07/30 07:11:46;;;;;;;;;4.00;4.00;;;;;-143.39;100.00;63593.47;4886021;29;45365;-81
2021/07/30 07:14:11;;;;;;;;;5.50;4.50;;;;;-143.39;100.00;63593.47;4875884;29;45538;-82
2021/07/30 07:16:37;;;;;;;;;7.75;6.00;;;;;-143.39;100.00;63593.47;4861809;29;47302;-83
2021/07/30 07:19:04;;;;;;;;;7.00;4.00;;;;;-143.39;100.00;63593.47;4868189;29;45478;-83
2021/07/30 07:21:33;;;;;;;;;5.75;4.00;;;;;-143.39;100.00;63593.47;4879513;29;45285;-81
2021/07/30 07:23:58;;;;;;;;;6.75;6.00;;;;;-143.39;100.00;63593.47;4886817;29;45408;-83
2021/07/30 07:26:24;;;;;;;;;5.00;4.00;;;;;-143.39;100.00;63593.47;4886823;29;45429;-83
2021/07/30 07:28:49;;;;;;;;;6.25;4.25;;;;;-143.39;100.00;63593.47;4887013;29;45389;-83
2021/07/30 07:31:14;;;;;;;;;9.25;5.00;;;;;-143.39;100.00;63593.47;4887608;29;45314;-83
2021/07/30 07:33:40;;;;;;;;;5.00;5.00;;;;;-143.39;100.00;63593.47;4886797;29;45400;-83
2021/07/30 07:36:05;;;;;;;;;4.50;4.50;;;;;-143.39;100.00;63593.47;4886985;29;45514;-83
2021/07/30 07:38:30;;;;;;;;;5.00;4.75;;;;;-143.39;100.00;63593.47;4885349;29;45338;-83
2021/07/30 07:40:56;;;;;;;;;5.50;5.00;;;;;-143.39;100.00;63593.47;4887480;29;45300;-83
2021/07/30 07:43:21;;;;;;;;;6.00;4.00;;;;;-143.39;100.00;63593.47;4886841;29;45697;-83
2021/07/30 07:45:47;;;;;;;;;4.00;4.00;;;;;-143.39;100.00;63593.47;4887090;29;45495;-83
2021/07/30 07:48:12;;;;;;;;;4.75;4.75;;;;;-143.39;100.00;63593.47;4886902;29;45387;-83
2021/07/30 07:50:38;;;;;;;;;5.75;4.00;;;;;-143.39;100.00;63593.47;4887275;29;45423;-83
2021/07/30 07:53:23;;;;;;;;;8.25;4.75;;;;;-143.39;100.00;63593.47;4887947;29;45590;-83
2021/07/30 07:55:59;;;;;;;;;4.50;4.50;;;;;-143.39;100.00;63593.47;4891643;29;45264;-83
2021/07/30 07:58:24;;;;;;;;;4.25;4.00;;;;;-143.39;100.00;63593.47;4888233;29;45226;-84
2021/07/30 08:00:49;;;;;;;;;9.75;6.25;;;;;-143.39;100.00;63593.47;4886561;29;45447;-84
2021/07/30 08:03:15;;;;;;;;;5.75;5.75;;;;;-143.39;100.00;63593.47;4869182;29;45196;-84
2021/07/30 08:05:40;;;;;;;;;8.00;4.75;;;;;-143.39;100.00;63593.47;4886588;29;46083;-84
2021/07/30 08:08:06;;;;;;;;;5.75;5.75;;;;;-143.39;100.00;63593.47;4886268;29;45169;-84
2021/07/30 08:10:33;;;;;;;;;5.25;4.00;;;;;-143.39;100.00;63593.47;4897290;29;45167;-84
2021/07/30 08:12:58;;;;;;;;;4.00;4.00;;;;;-143.39;100.00;63593.47;4901660;29;45263;-84
2021/07/30 08:15:23;;;;;;;;;4.25;4.00;;;;;-143.39;100.00;63593.47;4887662;29;45347;-83
2021/07/30 08:17:49;;;;;;;;;5.00;3.00;;;;;-143.39;100.00;63593.47;4887858;29;45341;-84
2021/07/30 08:20:14;;;;;;;;;3.25;3.25;;;;;-143.39;100.00;63593.47;4886524;29;45323;-83
2021/07/30 08:22:42;;;;;;;;;3.75;3.75;;;;;-143.39;100.00;63593.47;4868945;29;45434;-84
2021/07/30 08:25:09;;;;;;;;;3.25;3.00;;;;;-143.39;100.00;63593.47;4869346;29;48215;-83
2021/07/30 08:27:35;;;;;;;;;6.00;4.75;;;;;-143.39;100.00;63593.47;4884764;29;46009;-84
2021/07/30 08:30:00;;;;;;;;;5.25;4.50;;;;;-143.39;100.00;63593.47;4886146;29;45266;-84
2021/07/30 08:32:26;;;;;;;;;3.75;3.75;;;;;-143.39;100.00;63593.47;4885929;29;45539;-84
2021/07/30 08:34:51;;;;;;;;;3.25;3.00;;;;;-143.39;100.00;63593.47;4886069;29;45211;-84
2021/07/30 08:37:17;;;;;;;;;5.00;3.25;;;;;-143.39;100.00;63593.47;4886836;29;45211;-84
2021/07/30 08:39:42;;;;;;;;;5.00;4.75;;;;;-143.39;100.00;63593.47;4887511;29;45286;-84
2021/07/30 08:42:08;;;;;;;;;4.00;4.00;;;;;-143.39;100.00;63593.47;4886097;29;45389;-84
2021/07/30 08:44:34;;;;;;;;;4.75;3.75;;;;;-143.39;100.00;63593.47;4885554;29;45696;-84
2021/07/30 08:46:59;;;;;;;;;5.00;4.25;;;;;-143.39;100.00;63593.47;4885612;29;45338;-84
2021/07/30 08:49:25;;;;;;;;;5.25;4.25;;;;;-143.39;100.00;63593.47;4884624;29;45393;-83
2021/07/30 08:52:10;;;;;;;;;3.50;2.25;;;;;-143.39;100.00;63593.47;4884460;29;45515;-84
2021/07/30 08:54:35;;;;;;;;;3.75;3.75;;;;;-143.39;100.00;63593.47;4885652;29;46044;-84
2021/07/30 08:57:00;;;;;;;;;5.00;3.50;;;;;-143.39;100.00;63593.47;4893092;29;45509;-84
2021/07/30 08:59:26;;;;;;;;;3.75;3.50;;;;;-143.39;100.00;63593.47;4884456;29;45499;-84
2021/07/30 09:01:53;;;;;;;;;3.75;2.00;;;;;-143.39;100.00;63593.47;4869989;29;45509;-84
2021/07/30 09:04:28;;;;;;;;;3.00;3.00;;;;;-143.39;100.00;63593.47;4884591;29;48166;-84
2021/07/30 09:06:55;;;;;;;;;4.00;4.00;;;;;-143.39;100.00;63593.47;4868301;29;45509;-83
2021/07/30 09:09:20;;;;;;;;;4.50;3.00;;;;;-143.39;100.00;63593.47;4887102;29;45250;-84
2021/07/30 09:11:46;;;;;;;;;2.25;2.25;;;;;-143.39;100.00;63593.47;4903261;29;45531;-83
2021/07/30 09:14:12;;;;;;;;;3.75;2.25;;;;;-143.39;100.00;63593.47;4891308;29;46258;-84
2021/07/30 09:16:51;;;;;;;;;2.50;2.50;;;;;-143.39;100.00;63593.47;4885834;29;45520;-84
2021/07/30 09:19:17;;;;;;;;;5.25;4.75;;;;;-143.39;100.00;63593.47;4885423;29;45365;-84
2021/07/30 09:21:42;;;;;;;;;4.00;4.00;;;;;-143.39;100.00;63593.47;4885925;29;45439;-84
2021/07/30 09:24:13;;;;;;;;;6.75;4.00;;;;;-143.39;100.00;63593.47;4886285;29;46293;-83
2021/07/30 09:26:42;;;;;;;;;6.75;5.25;;;;;-143.39;100.00;63593.47;4886004;29;45391;-83
2021/07/30 09:29:10;;;;;;;;;4.25;4.25;;;;;-143.39;100.00;63593.47;4884806;29;45445;-83
2021/07/30 09:31:42;;;;;;;;;4.75;3.00;;;;;-143.39;100.00;63593.47;4899835;29;45387;-83
2021/07/30 09:34:28;;;;;;;;;6.75;4.00;;;;;-143.39;100.00;63593.47;4883036;29;48222;-83
2021/07/30 09:37:24;;;;;;;;;7.25;4.50;;;;;-143.39;100.00;63593.47;4868264;29;45530;-83
2021/07/30 09:39:53;;;;;;;;;4.25;4.25;;;;;-143.39;100.00;63593.47;4884627;29;45326;-82
2021/07/30 09:42:21;;;;;;;;;5.00;4.00;;;;;-143.39;100.00;63593.47;4904212;29;45529;-82
2021/07/30 09:45:11;;;;;;;;;4.75;3.50;;;;;-143.39;100.00;63593.47;4903996;29;46639;-82
2021/07/30 09:47:48;;;;;;;;;5.00;4.00;;;;;-143.39;100.00;63593.47;4888568;29;45390;-83
2021/07/30 09:50:13;;;;;;;;;10.75;5.50;;;;;-143.39;100.00;63593.47;4904270;29;45391;-83
2021/07/30 09:52:41;;;;;;;;;4.75;4.00;;;;;-143.39;100.00;63593.47;4903867;29;45223;-83
2021/07/30 09:55:08;;;;;;;;;7.00;5.00;;;;;-143.39;100.00;63593.47;4903529;29;46425;-83
2021/07/30 09:57:42;;;;;;;;;5.00;3.00;;;;;-143.39;100.00;63593.47;4894142;29;45424;-83
2021/07/30 10:00:13;;;;;;;;;3.75;3.00;;;;;-143.39;100.00;63593.47;4899446;29;45379;-84
2021/07/30 10:02:41;;;;;;;;;4.25;2.75;;;;;-143.39;100.00;63593.47;4884930;29;45226;-84
2021/07/30 10:05:10;;;;;;;;;3.00;3.00;;;;;-143.39;100.00;63593.47;4884526;29;45451;-84
2021/07/30 10:07:37;;;;;;;;;3.00;2.75;;;;;-143.39;100.00;63593.47;4884910;29;45623;-84
2021/07/30 10:12:31;;;;;;;;;3.75;3.50;;;;;-143.39;100.00;63593.47;4904616;29;45447;-85
2021/07/30 10:15:01;;;;;;;;;3.00;3.00;;;;;-143.39;100.00;63593.47;4867658;29;47485;-85
2021/07/30 10:17:30;;;;;;;;;3.50;3.50;;;;;-143.39;100.00;63593.47;4899194;29;45991;-83
2021/07/30 10:19:58;;;;;;;;;3.00;3.00;;;;;-143.39;100.00;63593.47;4884977;29;45508;-84
2021/07/30 10:22:24;;;;;;;;;3.25;3.25;;;;;-143.39;100.00;63593.47;4884569;29;45416;-84
2021/07/30 10:24:54;;;;;;;;;3.75;3.75;;;;;-143.39;100.00;63593.47;4899170;29;45996;-83
2021/07/30 10:27:22;;;;;;;;;2.25;2.00;;;;;-143.39;100.00;63593.47;4884737;29;45574;-85
2021/07/30 10:30:01;;;;;;;;;3.75;1.50;;;;;-143.39;100.00;63593.47;4884729;29;45364;-84
2021/07/30 10:32:56;;;;;;;;;3.00;3.00;;;;;-143.39;100.00;63593.47;4885663;29;45496;-84
2021/07/30 10:35:28;;;;;;;;;3.25;3.25;;;;;-143.39;100.00;63593.47;4886202;29;45503;-84
2021/07/30 10:38:13;;;;;;;;;3.00;2.00;;;;;-143.39;100.00;63593.47;4884539;29;45350;-85
2021/07/30 10:40:44;;;;;;;;;1.00;1.00;;;;;-143.39;100.00;63593.47;4867622;29;45308;-84
2021/07/30 10:43:11;;;;;;;;;1.00;1.00;;;;;-143.39;100.00;63593.47;4884244;29;45415;-84
2021/07/30 10:45:39;;;;;;;;;2.50;1.75;;;;;-143.39;100.00;63593.47;4884222;29;45307;-82
2021/07/30 10:48:28;;;;;;;;;2.00;1.75;;;;;-143.39;100.00;63593.47;4886772;29;45267;-84
2021/07/30 10:50:56;;;;;;;;;3.25;2.75;;;;;-143.39;100.00;63593.47;4882533;29;45372;-84
2021/07/30 10:53:37;;;;;;;;;3.00;3.00;;;;;-143.39;100.00;63593.47;4886960;29;45436;-84
2021/07/30 10:56:07;;;;;;;;;3.00;3.00;;;;;-143.39;100.00;63593.47;4896800;29;46023;-83
2021/07/30 10:58:45;;;;;;;;;3.75;3.00;;;;;-143.39;100.00;63593.47;4890879;29;45487;-86
2021/07/30 11:01:21;;;;;;;;;2.00;2.00;;;;;-143.39;100.00;63593.47;4887665;29;45487;-83
2021/07/30 11:03:52;;;;;;;;;2.75;2.75;;;;;-143.39;100.00;63593.47;4887173;29;45308;-83
2021/07/30 11:06:29;;;;;;;;;1.00;1.00;;;;;-143.39;100.00;63593.47;4885991;29;47144;-85
2021/07/30 11:09:04;;;;;;;;;1.75;1.75;;;;;-143.39;100.00;63593.47;4887183;29;45500;-85
2021/07/30 11:11:38;;;;;;;;;2.50;1.00;;;;;-143.39;100.00;63593.47;4905258;29;45327;-86
2021/07/30 11:14:13;;;;;;;;;1.50;1.50;;;;;-143.39;100.00;63593.47;4894396;29;45479;-83